sensor_id;sensor_type;location;lat;lon;timestamp;P1;durP1;ratioP1;P2;durP2;ratioP2
9124;SDS011;4597;48.730;9.114;2022-11-15T00:02:05;4.20;;;3.80;;
9124;SDS011;4597;48.730;9.114;2022-11-15T00:04:30;4.20;;;3.90;;
9124;SDS011;4597;48.730;9.114;2022-11-15T00:06:56;5.23;;;3.47;;
9124;SDS011;4597;48.730;9.114;2022-11-15T00:09:22;4.67;;;4.03;;
9124;SDS011;4597;48.730;9.114;2022-11-15T00:11:47;4.13;;;3.67;;
9124;SDS011;4597;48.730;9.114;2022-11-15T00:14:13;5.90;;;4.40;;
9124;SDS011;4597;48.730;9.114;2022-11-15T00:16:38;7.20;;;4.70;;
9124;SDS011;4597;48.730;9.114;2022-11-15T00:19:03;6.30;;;4.60;;
9124;SDS011;4597;48.730;9.114;2022-11-15T00:21:29;4.63;;;4.20;;
9124;SDS011;4597;48.730;9.114;2022-11-15T00:23:54;6.00;;;4.50;;
9124;SDS011;4597;48.730;9.114;2022-11-15T00:26:20;8.27;;;4.50;;
9124;SDS011;4597;48.730;9.114;2022-11-15T00:28:46;7.03;;;4.57;;
9124;SDS011;4597;48.730;9.114;2022-11-15T00:31:12;4.10;;;3.73;;
9124;SDS011;4597;48.730;9.114;2022-11-15T00:33:38;4.40;;;4.00;;
9124;SDS011;4597;48.730;9.114;2022-11-15T00:36:05;4.53;;;4.13;;
9124;SDS011;4597;48.730;9.114;2022-11-15T00:38:34;5.53;;;4.00;;
9124;SDS011;4597;48.730;9.114;2022-11-15T00:41:01;4.47;;;3.00;;
9124;SDS011;4597;48.730;9.114;2022-11-15T00:43:28;3.60;;;3.07;;
9124;SDS011;4597;48.730;9.114;2022-11-15T00:45:53;2.47;;;2.27;;
9124;SDS011;4597;48.730;9.114;2022-11-15T00:48:19;2.70;;;2.50;;
9124;SDS011;4597;48.730;9.114;2022-11-15T00:50:45;2.40;;;2.20;;
9124;SDS011;4597;48.730;9.114;2022-11-15T00:53:10;3.60;;;2.70;;
9124;SDS011;4597;48.730;9.114;2022-11-15T00:55:36;4.00;;;2.37;;
9124;SDS011;4597;48.730;9.114;2022-11-15T00:58:02;2.77;;;2.57;;
9124;SDS011;4597;48.730;9.114;2022-11-15T01:00:27;2.70;;;2.50;;
9124;SDS011;4597;48.730;9.114;2022-11-15T01:02:53;2.93;;;2.50;;
9124;SDS011;4597;48.730;9.114;2022-11-15T01:05:18;4.50;;;2.47;;
9124;SDS011;4597;48.730;9.114;2022-11-15T01:07:44;2.70;;;2.50;;
9124;SDS011;4597;48.730;9.114;2022-11-15T01:10:10;2.37;;;2.27;;
9124;SDS011;4597;48.730;9.114;2022-11-15T01:12:35;2.70;;;2.50;;
9124;SDS011;4597;48.730;9.114;2022-11-15T01:15:01;2.70;;;2.50;;
9124;SDS011;4597;48.730;9.114;2022-11-15T01:17:27;3.10;;;2.87;;
9124;SDS011;4597;48.730;9.114;2022-11-15T01:19:52;2.77;;;2.57;;
9124;SDS011;4597;48.730;9.114;2022-11-15T01:22:18;3.43;;;2.50;;
9124;SDS011;4597;48.730;9.114;2022-11-15T01:24:43;3.03;;;2.53;;
9124;SDS011;4597;48.730;9.114;2022-11-15T01:27:09;3.03;;;2.30;;
9124;SDS011;4597;48.730;9.114;2022-11-15T01:29:35;2.97;;;2.77;;
9124;SDS011;4597;48.730;9.114;2022-11-15T01:32:00;3.00;;;2.40;;
9124;SDS011;4597;48.730;9.114;2022-11-15T01:34:26;3.07;;;2.13;;
9124;SDS011;4597;48.730;9.114;2022-11-15T01:36:51;2.63;;;2.43;;
9124;SDS011;4597;48.730;9.114;2022-11-15T01:39:17;2.40;;;2.20;;
9124;SDS011;4597;48.730;9.114;2022-11-15T01:41:43;2.50;;;2.30;;
9124;SDS011;4597;48.730;9.114;2022-11-15T01:46:56;2.77;;;2.57;;
9124;SDS011;4597;48.730;9.114;2022-11-15T01:49:24;2.50;;;2.30;;
9124;SDS011;4597;48.730;9.114;2022-11-15T01:51:51;2.53;;;2.33;;
9124;SDS011;4597;48.730;9.114;2022-11-15T01:54:18;2.33;;;2.13;;
9124;SDS011;4597;48.730;9.114;2022-11-15T01:56:47;2.77;;;2.20;;
9124;SDS011;4597;48.730;9.114;2022-11-15T01:59:21;2.27;;;2.17;;
9124;SDS011;4597;48.730;9.114;2022-11-15T02:01:47;2.43;;;2.23;;
9124;SDS011;4597;48.730;9.114;2022-11-15T02:04:14;3.53;;;2.37;;
9124;SDS011;4597;48.730;9.114;2022-11-15T02:06:43;3.57;;;2.93;;
9124;SDS011;4597;48.730;9.114;2022-11-15T02:09:11;2.90;;;2.40;;
9124;SDS011;4597;48.730;9.114;2022-11-15T02:11:37;3.23;;;2.23;;
9124;SDS011;4597;48.730;9.114;2022-11-15T02:14:03;2.63;;;2.43;;
9124;SDS011;4597;48.730;9.114;2022-11-15T02:16:49;2.60;;;2.40;;
9124;SDS011;4597;48.730;9.114;2022-11-15T02:20:06;2.17;;;2.00;;
9124;SDS011;4597;48.730;9.114;2022-11-15T02:28:11;2.43;;;2.23;;
9124;SDS011;4597;48.730;9.114;2022-11-15T02:31:06;3.47;;;2.27;;
9124;SDS011;4597;48.730;9.114;2022-11-15T02:33:57;2.73;;;2.30;;
9124;SDS011;4597;48.730;9.114;2022-11-15T02:36:50;2.53;;;2.33;;
9124;SDS011;4597;48.730;9.114;2022-11-15T02:39:42;3.13;;;2.27;;
9124;SDS011;4597;48.730;9.114;2022-11-15T02:42:32;2.50;;;2.30;;
9124;SDS011;4597;48.730;9.114;2022-11-15T02:45:21;2.33;;;2.13;;
9124;SDS011;4597;48.730;9.114;2022-11-15T02:47:54;2.70;;;2.50;;
9124;SDS011;4597;48.730;9.114;2022-11-15T02:50:25;2.80;;;2.60;;
9124;SDS011;4597;48.730;9.114;2022-11-15T02:52:53;2.77;;;2.23;;
9124;SDS011;4597;48.730;9.114;2022-11-15T02:58:19;2.33;;;2.13;;
9124;SDS011;4597;48.730;9.114;2022-11-15T03:01:03;2.83;;;2.63;;
9124;SDS011;4597;48.730;9.114;2022-11-15T03:06:42;2.67;;;2.10;;
9124;SDS011;4597;48.730;9.114;2022-11-15T03:12:03;2.30;;;2.10;;
9124;SDS011;4597;48.730;9.114;2022-11-15T03:14:37;3.20;;;2.20;;
9124;SDS011;4597;48.730;9.114;2022-11-15T03:17:19;3.63;;;2.10;;
9124;SDS011;4597;48.730;9.114;2022-11-15T03:19:48;2.07;;;1.90;;
9124;SDS011;4597;48.730;9.114;2022-11-15T03:22:18;4.23;;;2.23;;
9124;SDS011;4597;48.730;9.114;2022-11-15T03:24:47;2.30;;;2.10;;
9124;SDS011;4597;48.730;9.114;2022-11-15T03:27:19;2.20;;;2.10;;
9124;SDS011;4597;48.730;9.114;2022-11-15T03:29:53;2.67;;;2.27;;
9124;SDS011;4597;48.730;9.114;2022-11-15T03:32:29;2.13;;;2.03;;
9124;SDS011;4597;48.730;9.114;2022-11-15T03:35:33;3.13;;;2.40;;
9124;SDS011;4597;48.730;9.114;2022-11-15T03:40:38;2.47;;;2.27;;
9124;SDS011;4597;48.730;9.114;2022-11-15T03:45:54;2.30;;;2.20;;
9124;SDS011;4597;48.730;9.114;2022-11-15T03:48:26;3.40;;;2.17;;
9124;SDS011;4597;48.730;9.114;2022-11-15T03:50:58;2.23;;;2.13;;
9124;SDS011;4597;48.730;9.114;2022-11-15T03:53:24;2.60;;;2.20;;
9124;SDS011;4597;48.730;9.114;2022-11-15T03:55:50;3.00;;;2.70;;
9124;SDS011;4597;48.730;9.114;2022-11-15T03:58:16;2.40;;;2.20;;
9124;SDS011;4597;48.730;9.114;2022-11-15T04:00:41;2.33;;;2.13;;
9124;SDS011;4597;48.730;9.114;2022-11-15T04:03:07;4.30;;;2.23;;
9124;SDS011;4597;48.730;9.114;2022-11-15T04:05:32;2.20;;;2.10;;
9124;SDS011;4597;48.730;9.114;2022-11-15T04:07:58;2.40;;;2.20;;
9124;SDS011;4597;48.730;9.114;2022-11-15T04:10:24;2.03;;;1.90;;
9124;SDS011;4597;48.730;9.114;2022-11-15T04:12:49;1.87;;;1.70;;
9124;SDS011;4597;48.730;9.114;2022-11-15T04:15:16;2.13;;;1.93;;
9124;SDS011;4597;48.730;9.114;2022-11-15T04:20:11;2.20;;;2.00;;
9124;SDS011;4597;48.730;9.114;2022-11-15T04:23:00;2.07;;;1.97;;
9124;SDS011;4597;48.730;9.114;2022-11-15T04:25:46;2.83;;;2.20;;
9124;SDS011;4597;48.730;9.114;2022-11-15T04:28:15;2.67;;;2.33;;
9124;SDS011;4597;48.730;9.114;2022-11-15T04:30:41;2.17;;;2.07;;
9124;SDS011;4597;48.730;9.114;2022-11-15T04:33:06;2.23;;;1.87;;
9124;SDS011;4597;48.730;9.114;2022-11-15T04:35:32;2.90;;;2.00;;
9124;SDS011;4597;48.730;9.114;2022-11-15T04:37:58;2.00;;;1.90;;
9124;SDS011;4597;48.730;9.114;2022-11-15T04:40:24;2.50;;;2.30;;
9124;SDS011;4597;48.730;9.114;2022-11-15T04:42:49;2.30;;;2.10;;
9124;SDS011;4597;48.730;9.114;2022-11-15T04:45:15;2.43;;;2.07;;
9124;SDS011;4597;48.730;9.114;2022-11-15T04:47:42;2.37;;;2.00;;
9124;SDS011;4597;48.730;9.114;2022-11-15T04:50:10;2.33;;;2.20;;
9124;SDS011;4597;48.730;9.114;2022-11-15T04:52:38;2.20;;;2.00;;
9124;SDS011;4597;48.730;9.114;2022-11-15T04:55:08;1.93;;;1.83;;
9124;SDS011;4597;48.730;9.114;2022-11-15T04:57:35;2.40;;;2.07;;
9124;SDS011;4597;48.730;9.114;2022-11-15T05:00:02;2.20;;;2.10;;
9124;SDS011;4597;48.730;9.114;2022-11-15T05:02:28;2.37;;;2.20;;
9124;SDS011;4597;48.730;9.114;2022-11-15T05:05:14;2.07;;;1.90;;
9124;SDS011;4597;48.730;9.114;2022-11-15T05:07:40;2.80;;;2.20;;
9124;SDS011;4597;48.730;9.114;2022-11-15T05:10:05;2.90;;;1.90;;
9124;SDS011;4597;48.730;9.114;2022-11-15T05:12:31;2.63;;;1.80;;
9124;SDS011;4597;48.730;9.114;2022-11-15T05:14:56;2.77;;;2.07;;
9124;SDS011;4597;48.730;9.114;2022-11-15T05:17:22;2.30;;;2.00;;
9124;SDS011;4597;48.730;9.114;2022-11-15T05:19:47;2.10;;;1.90;;
9124;SDS011;4597;48.730;9.114;2022-11-15T05:22:13;2.07;;;1.97;;
9124;SDS011;4597;48.730;9.114;2022-11-15T05:24:38;2.13;;;2.03;;
9124;SDS011;4597;48.730;9.114;2022-11-15T05:27:04;2.67;;;2.30;;
9124;SDS011;4597;48.730;9.114;2022-11-15T05:29:29;3.03;;;2.13;;
9124;SDS011;4597;48.730;9.114;2022-11-15T05:31:55;2.30;;;2.10;;
9124;SDS011;4597;48.730;9.114;2022-11-15T05:34:20;1.93;;;1.83;;
9124;SDS011;4597;48.730;9.114;2022-11-15T05:36:47;2.30;;;2.20;;
9124;SDS011;4597;48.730;9.114;2022-11-15T05:39:13;3.13;;;2.13;;
9124;SDS011;4597;48.730;9.114;2022-11-15T05:41:41;3.20;;;2.20;;
9124;SDS011;4597;48.730;9.114;2022-11-15T05:44:11;1.90;;;1.80;;
9124;SDS011;4597;48.730;9.114;2022-11-15T05:46:40;2.10;;;2.00;;
9124;SDS011;4597;48.730;9.114;2022-11-15T05:49:07;2.20;;;2.10;;
9124;SDS011;4597;48.730;9.114;2022-11-15T05:51:37;2.13;;;2.03;;
9124;SDS011;4597;48.730;9.114;2022-11-15T05:54:03;2.37;;;2.20;;
9124;SDS011;4597;48.730;9.114;2022-11-15T05:56:29;3.57;;;3.03;;
9124;SDS011;4597;48.730;9.114;2022-11-15T05:58:55;3.30;;;3.00;;
9124;SDS011;4597;48.730;9.114;2022-11-15T06:01:22;3.63;;;3.10;;
9124;SDS011;4597;48.730;9.114;2022-11-15T06:03:49;3.10;;;2.73;;
9124;SDS011;4597;48.730;9.114;2022-11-15T06:06:15;2.73;;;2.53;;
9124;SDS011;4597;48.730;9.114;2022-11-15T06:08:40;3.00;;;2.70;;
9124;SDS011;4597;48.730;9.114;2022-11-15T06:11:06;3.13;;;2.80;;
9124;SDS011;4597;48.730;9.114;2022-11-15T06:13:32;3.87;;;2.73;;
9124;SDS011;4597;48.730;9.114;2022-11-15T06:15:58;3.50;;;3.10;;
9124;SDS011;4597;48.730;9.114;2022-11-15T06:18:25;3.77;;;2.93;;
9124;SDS011;4597;48.730;9.114;2022-11-15T06:20:50;4.23;;;2.37;;
9124;SDS011;4597;48.730;9.114;2022-11-15T06:23:16;2.90;;;2.60;;
9124;SDS011;4597;48.730;9.114;2022-11-15T06:25:42;2.30;;;2.10;;
9124;SDS011;4597;48.730;9.114;2022-11-15T06:28:08;2.50;;;2.33;;
9124;SDS011;4597;48.730;9.114;2022-11-15T06:30:33;2.60;;;2.10;;
9124;SDS011;4597;48.730;9.114;2022-11-15T06:33:03;3.70;;;2.30;;
9124;SDS011;4597;48.730;9.114;2022-11-15T06:35:30;3.17;;;2.10;;
9124;SDS011;4597;48.730;9.114;2022-11-15T06:38:10;2.10;;;2.00;;
9124;SDS011;4597;48.730;9.114;2022-11-15T06:40:37;2.10;;;2.00;;
9124;SDS011;4597;48.730;9.114;2022-11-15T06:43:03;2.70;;;2.07;;
9124;SDS011;4597;48.730;9.114;2022-11-15T06:45:29;2.23;;;2.03;;
9124;SDS011;4597;48.730;9.114;2022-11-15T06:47:55;1.70;;;1.60;;
9124;SDS011;4597;48.730;9.114;2022-11-15T06:50:21;2.33;;;1.80;;
9124;SDS011;4597;48.730;9.114;2022-11-15T06:52:47;1.90;;;1.80;;
9124;SDS011;4597;48.730;9.114;2022-11-15T06:55:13;2.60;;;2.20;;
9124;SDS011;4597;48.730;9.114;2022-11-15T06:57:45;3.73;;;2.93;;
9124;SDS011;4597;48.730;9.114;2022-11-15T07:00:12;4.97;;;3.90;;
9124;SDS011;4597;48.730;9.114;2022-11-15T07:02:38;6.70;;;4.90;;
9124;SDS011;4597;48.730;9.114;2022-11-15T07:05:04;5.80;;;4.47;;
9124;SDS011;4597;48.730;9.114;2022-11-15T07:07:30;5.27;;;4.30;;
9124;SDS011;4597;48.730;9.114;2022-11-15T07:09:55;6.03;;;4.23;;
9124;SDS011;4597;48.730;9.114;2022-11-15T07:12:21;5.07;;;3.43;;
9124;SDS011;4597;48.730;9.114;2022-11-15T07:14:46;5.13;;;3.47;;
9124;SDS011;4597;48.730;9.114;2022-11-15T07:17:12;2.93;;;2.63;;
9124;SDS011;4597;48.730;9.114;2022-11-15T07:19:37;2.80;;;2.60;;
9124;SDS011;4597;48.730;9.114;2022-11-15T07:22:03;2.90;;;2.43;;
9124;SDS011;4597;48.730;9.114;2022-11-15T07:24:28;2.60;;;2.40;;
9124;SDS011;4597;48.730;9.114;2022-11-15T07:26:54;2.60;;;2.40;;
9124;SDS011;4597;48.730;9.114;2022-11-15T07:29:19;2.77;;;2.47;;
9124;SDS011;4597;48.730;9.114;2022-11-15T07:31:45;2.33;;;2.13;;
9124;SDS011;4597;48.730;9.114;2022-11-15T07:34:10;4.50;;;2.20;;
9124;SDS011;4597;48.730;9.114;2022-11-15T07:36:36;2.47;;;2.27;;
9124;SDS011;4597;48.730;9.114;2022-11-15T07:39:01;2.53;;;2.20;;
9124;SDS011;4597;48.730;9.114;2022-11-15T07:41:27;2.80;;;2.30;;
9124;SDS011;4597;48.730;9.114;2022-11-15T07:43:54;2.90;;;2.47;;
9124;SDS011;4597;48.730;9.114;2022-11-15T07:46:19;2.97;;;2.50;;
9124;SDS011;4597;48.730;9.114;2022-11-15T07:48:45;3.80;;;2.60;;
9124;SDS011;4597;48.730;9.114;2022-11-15T07:51:13;3.50;;;2.10;;
9124;SDS011;4597;48.730;9.114;2022-11-15T07:53:40;2.90;;;2.30;;
9124;SDS011;4597;48.730;9.114;2022-11-15T07:56:07;2.80;;;2.10;;
9124;SDS011;4597;48.730;9.114;2022-11-15T07:58:33;3.70;;;2.60;;
9124;SDS011;4597;48.730;9.114;2022-11-15T08:01:02;2.60;;;2.40;;
9124;SDS011;4597;48.730;9.114;2022-11-15T08:03:28;4.33;;;3.63;;
9124;SDS011;4597;48.730;9.114;2022-11-15T08:05:54;4.57;;;3.73;;
9124;SDS011;4597;48.730;9.114;2022-11-15T08:08:19;2.70;;;2.50;;
9124;SDS011;4597;48.730;9.114;2022-11-15T08:10:45;3.30;;;2.70;;
9124;SDS011;4597;48.730;9.114;2022-11-15T08:13:11;3.30;;;3.00;;
9124;SDS011;4597;48.730;9.114;2022-11-15T08:15:37;3.70;;;2.80;;
9124;SDS011;4597;48.730;9.114;2022-11-15T08:18:04;2.80;;;2.60;;
9124;SDS011;4597;48.730;9.114;2022-11-15T08:20:33;3.43;;;2.40;;
9124;SDS011;4597;48.730;9.114;2022-11-15T08:23:00;2.50;;;2.30;;
9124;SDS011;4597;48.730;9.114;2022-11-15T08:25:27;2.27;;;2.17;;
9124;SDS011;4597;48.730;9.114;2022-11-15T08:27:56;6.50;;;3.20;;
9124;SDS011;4597;48.730;9.114;2022-11-15T08:30:23;3.33;;;2.67;;
9124;SDS011;4597;48.730;9.114;2022-11-15T08:32:49;3.90;;;2.30;;
9124;SDS011;4597;48.730;9.114;2022-11-15T08:35:17;2.43;;;2.30;;
9124;SDS011;4597;48.730;9.114;2022-11-15T08:37:43;2.47;;;2.23;;
9124;SDS011;4597;48.730;9.114;2022-11-15T08:40:09;2.40;;;2.30;;
9124;SDS011;4597;48.730;9.114;2022-11-15T08:42:35;3.03;;;2.57;;
9124;SDS011;4597;48.730;9.114;2022-11-15T08:45:01;4.27;;;2.53;;
9124;SDS011;4597;48.730;9.114;2022-11-15T08:47:26;3.13;;;2.67;;
9124;SDS011;4597;48.730;9.114;2022-11-15T08:49:52;2.73;;;2.53;;
9124;SDS011;4597;48.730;9.114;2022-11-15T08:52:18;2.23;;;2.07;;
9124;SDS011;4597;48.730;9.114;2022-11-15T08:54:43;2.80;;;2.57;;
9124;SDS011;4597;48.730;9.114;2022-11-15T08:57:09;2.70;;;2.50;;
9124;SDS011;4597;48.730;9.114;2022-11-15T08:59:35;2.80;;;2.60;;
9124;SDS011;4597;48.730;9.114;2022-11-15T09:02:01;3.23;;;2.93;;
9124;SDS011;4597;48.730;9.114;2022-11-15T09:04:27;5.63;;;3.33;;
9124;SDS011;4597;48.730;9.114;2022-11-15T09:06:52;4.90;;;4.10;;
9124;SDS011;4597;48.730;9.114;2022-11-15T09:09:18;5.37;;;3.93;;
9124;SDS011;4597;48.730;9.114;2022-11-15T09:11:43;4.17;;;3.70;;
9124;SDS011;4597;48.730;9.114;2022-11-15T09:14:12;3.90;;;3.60;;
9124;SDS011;4597;48.730;9.114;2022-11-15T09:16:38;4.73;;;4.13;;
9124;SDS011;4597;48.730;9.114;2022-11-15T09:19:04;5.97;;;4.13;;
9124;SDS011;4597;48.730;9.114;2022-11-15T09:21:30;6.80;;;4.87;;
9124;SDS011;4597;48.730;9.114;2022-11-15T09:23:56;10.77;;;6.17;;
9124;SDS011;4597;48.730;9.114;2022-11-15T09:26:22;7.30;;;5.27;;
9124;SDS011;4597;48.730;9.114;2022-11-15T09:28:48;5.50;;;5.00;;
9124;SDS011;4597;48.730;9.114;2022-11-15T09:31:13;3.30;;;2.87;;
9124;SDS011;4597;48.730;9.114;2022-11-15T09:33:39;3.10;;;2.80;;
9124;SDS011;4597;48.730;9.114;2022-11-15T09:36:07;7.67;;;3.77;;
9124;SDS011;4597;48.730;9.114;2022-11-15T09:38:34;3.50;;;3.20;;
9124;SDS011;4597;48.730;9.114;2022-11-15T09:43:52;2.80;;;2.60;;
9124;SDS011;4597;48.730;9.114;2022-11-15T09:46:27;4.10;;;2.37;;
9124;SDS011;4597;48.730;9.114;2022-11-15T09:49:16;3.20;;;2.90;;
9124;SDS011;4597;48.730;9.114;2022-11-15T09:51:43;4.20;;;2.83;;
9124;SDS011;4597;48.730;9.114;2022-11-15T09:54:23;3.00;;;2.80;;
9124;SDS011;4597;48.730;9.114;2022-11-15T09:56:50;2.50;;;2.30;;
9124;SDS011;4597;48.730;9.114;2022-11-15T09:59:37;4.43;;;3.50;;
9124;SDS011;4597;48.730;9.114;2022-11-15T10:05:03;8.23;;;5.00;;
9124;SDS011;4597;48.730;9.114;2022-11-15T10:12:44;7.10;;;4.73;;
9124;SDS011;4597;48.730;9.114;2022-11-15T10:15:13;8.97;;;4.63;;
9124;SDS011;4597;48.730;9.114;2022-11-15T10:20:26;7.67;;;5.23;;
9124;SDS011;4597;48.730;9.114;2022-11-15T10:22:58;10.17;;;4.90;;
9124;SDS011;4597;48.730;9.114;2022-11-15T10:30:37;6.03;;;4.77;;
9124;SDS011;4597;48.730;9.114;2022-11-15T10:39:10;7.80;;;4.67;;
9124;SDS011;4597;48.730;9.114;2022-11-15T10:51:54;7.67;;;4.80;;
9124;SDS011;4597;48.730;9.114;2022-11-15T10:56:56;8.67;;;4.80;;
9124;SDS011;4597;48.730;9.114;2022-11-15T10:59:24;6.60;;;4.23;;
9124;SDS011;4597;48.730;9.114;2022-11-15T11:01:53;7.93;;;4.60;;
9124;SDS011;4597;48.730;9.114;2022-11-15T11:04:18;6.27;;;5.13;;
9124;SDS011;4597;48.730;9.114;2022-11-15T11:06:51;8.37;;;5.50;;
9124;SDS011;4597;48.730;9.114;2022-11-15T11:09:37;9.00;;;7.03;;
9124;SDS011;4597;48.730;9.114;2022-11-15T11:12:09;7.13;;;5.80;;
9124;SDS011;4597;48.730;9.114;2022-11-15T11:14:37;5.60;;;4.90;;
9124;SDS011;4597;48.730;9.114;2022-11-15T11:19:45;5.60;;;4.43;;
9124;SDS011;4597;48.730;9.114;2022-11-15T11:27:53;6.03;;;4.17;;
9124;SDS011;4597;48.730;9.114;2022-11-15T11:41:38;4.20;;;3.37;;
9124;SDS011;4597;48.730;9.114;2022-11-15T11:47:19;5.20;;;3.40;;
9124;SDS011;4597;48.730;9.114;2022-11-15T11:52:17;4.07;;;3.70;;
9124;SDS011;4597;48.730;9.114;2022-11-15T11:55:02;3.93;;;3.30;;
9124;SDS011;4597;48.730;9.114;2022-11-15T11:57:44;4.07;;;3.53;;
9124;SDS011;4597;48.730;9.114;2022-11-15T12:00:24;5.83;;;4.07;;
9124;SDS011;4597;48.730;9.114;2022-11-15T12:03:56;8.00;;;4.63;;
9124;SDS011;4597;48.730;9.114;2022-11-15T12:06:27;7.43;;;4.50;;
9124;SDS011;4597;48.730;9.114;2022-11-15T12:14:42;5.10;;;2.80;;
9124;SDS011;4597;48.730;9.114;2022-11-15T12:17:13;4.50;;;2.67;;
9124;SDS011;4597;48.730;9.114;2022-11-15T12:19:40;2.53;;;2.33;;
9124;SDS011;4597;48.730;9.114;2022-11-15T12:22:13;2.87;;;2.23;;
9124;SDS011;4597;48.730;9.114;2022-11-15T12:27:48;4.10;;;2.60;;
9124;SDS011;4597;48.730;9.114;2022-11-15T12:30:21;5.80;;;3.00;;
9124;SDS011;4597;48.730;9.114;2022-11-15T12:32:52;6.03;;;4.20;;
9124;SDS011;4597;48.730;9.114;2022-11-15T12:35:38;5.67;;;4.17;;
9124;SDS011;4597;48.730;9.114;2022-11-15T12:38:10;4.33;;;3.70;;
9124;SDS011;4597;48.730;9.114;2022-11-15T12:40:37;7.27;;;3.80;;
9124;SDS011;4597;48.730;9.114;2022-11-15T12:43:34;4.80;;;3.63;;
9124;SDS011;4597;48.730;9.114;2022-11-15T12:46:05;4.93;;;3.30;;
9124;SDS011;4597;48.730;9.114;2022-11-15T12:51:01;4.10;;;2.60;;
9124;SDS011;4597;48.730;9.114;2022-11-15T12:53:30;3.10;;;2.30;;
9124;SDS011;4597;48.730;9.114;2022-11-15T13:06:56;3.40;;;3.00;;
9124;SDS011;4597;48.730;9.114;2022-11-15T13:12:01;4.53;;;3.27;;
9124;SDS011;4597;48.730;9.114;2022-11-15T13:19:55;7.17;;;3.67;;
9124;SDS011;4597;48.730;9.114;2022-11-15T13:28:01;4.23;;;3.60;;
9124;SDS011;4597;48.730;9.114;2022-11-15T13:30:34;4.27;;;3.87;;
9124;SDS011;4597;48.730;9.114;2022-11-15T13:33:07;5.47;;;4.03;;
9124;SDS011;4597;48.730;9.114;2022-11-15T13:35:36;4.10;;;3.53;;
9124;SDS011;4597;48.730;9.114;2022-11-15T13:38:05;4.00;;;3.60;;
9124;SDS011;4597;48.730;9.114;2022-11-15T13:40:37;6.60;;;4.13;;
9124;SDS011;4597;48.730;9.114;2022-11-15T13:46:03;4.13;;;3.50;;
9124;SDS011;4597;48.730;9.114;2022-11-15T13:48:37;4.40;;;2.90;;
9124;SDS011;4597;48.730;9.114;2022-11-15T13:51:08;5.20;;;3.43;;
9124;SDS011;4597;48.730;9.114;2022-11-15T13:53:57;4.80;;;4.10;;
9124;SDS011;4597;48.730;9.114;2022-11-15T13:56:27;5.53;;;4.67;;
9124;SDS011;4597;48.730;9.114;2022-11-15T13:58:55;3.77;;;3.47;;
9124;SDS011;4597;48.730;9.114;2022-11-15T14:01:20;3.63;;;3.13;;
9124;SDS011;4597;48.730;9.114;2022-11-15T14:03:49;3.77;;;2.93;;
9124;SDS011;4597;48.730;9.114;2022-11-15T14:06:20;4.07;;;3.57;;
9124;SDS011;4597;48.730;9.114;2022-11-15T14:11:24;5.40;;;3.07;;
9124;SDS011;4597;48.730;9.114;2022-11-15T14:14:02;4.00;;;3.00;;
9124;SDS011;4597;48.730;9.114;2022-11-15T14:16:38;4.23;;;2.40;;
9124;SDS011;4597;48.730;9.114;2022-11-15T14:19:06;4.93;;;2.73;;
9124;SDS011;4597;48.730;9.114;2022-11-15T14:21:35;3.87;;;2.80;;
9124;SDS011;4597;48.730;9.114;2022-11-15T14:24:17;2.67;;;2.50;;
9124;SDS011;4597;48.730;9.114;2022-11-15T14:26:44;2.50;;;2.30;;
9124;SDS011;4597;48.730;9.114;2022-11-15T14:29:26;4.27;;;2.53;;
9124;SDS011;4597;48.730;9.114;2022-11-15T14:34:40;2.50;;;2.27;;
9124;SDS011;4597;48.730;9.114;2022-11-15T14:37:40;2.20;;;2.10;;
9124;SDS011;4597;48.730;9.114;2022-11-15T14:40:00;2.20;;;2.10;;
9124;SDS011;4597;48.730;9.114;2022-11-15T14:42:26;4.23;;;2.20;;
9124;SDS011;4597;48.730;9.114;2022-11-15T14:44:52;4.57;;;2.50;;
9124;SDS011;4597;48.730;9.114;2022-11-15T14:47:18;2.40;;;2.20;;
9124;SDS011;4597;48.730;9.114;2022-11-15T14:49:44;5.03;;;2.80;;
9124;SDS011;4597;48.730;9.114;2022-11-15T14:52:25;4.80;;;3.20;;
9124;SDS011;4597;48.730;9.114;2022-11-15T14:54:53;4.97;;;3.40;;
9124;SDS011;4597;48.730;9.114;2022-11-15T14:57:19;4.97;;;3.20;;
9124;SDS011;4597;48.730;9.114;2022-11-15T14:59:45;5.93;;;3.13;;
9124;SDS011;4597;48.730;9.114;2022-11-15T15:02:15;4.80;;;2.97;;
9124;SDS011;4597;48.730;9.114;2022-11-15T15:04:41;3.03;;;2.80;;
9124;SDS011;4597;48.730;9.114;2022-11-15T15:07:06;3.50;;;3.03;;
9124;SDS011;4597;48.730;9.114;2022-11-15T15:09:32;3.10;;;2.80;;
9124;SDS011;4597;48.730;9.114;2022-11-15T15:11:58;4.27;;;2.60;;
9124;SDS011;4597;48.730;9.114;2022-11-15T15:14:23;5.07;;;2.40;;
9124;SDS011;4597;48.730;9.114;2022-11-15T15:16:49;3.20;;;2.90;;
9124;SDS011;4597;48.730;9.114;2022-11-15T15:19:14;3.33;;;3.03;;
9124;SDS011;4597;48.730;9.114;2022-11-15T15:21:40;3.00;;;2.80;;
9124;SDS011;4597;48.730;9.114;2022-11-15T15:24:05;3.07;;;2.83;;
9124;SDS011;4597;48.730;9.114;2022-11-15T15:26:32;3.10;;;2.20;;
9124;SDS011;4597;48.730;9.114;2022-11-15T15:29:01;2.90;;;2.60;;
9124;SDS011;4597;48.730;9.114;2022-11-15T15:31:26;3.60;;;2.23;;
9124;SDS011;4597;48.730;9.114;2022-11-15T15:33:52;3.10;;;2.80;;
9124;SDS011;4597;48.730;9.114;2022-11-15T15:36:18;3.83;;;2.80;;
9124;SDS011;4597;48.730;9.114;2022-11-15T15:38:44;3.93;;;3.27;;
9124;SDS011;4597;48.730;9.114;2022-11-15T15:41:11;2.70;;;2.50;;
9124;SDS011;4597;48.730;9.114;2022-11-15T15:43:38;3.27;;;2.50;;
9124;SDS011;4597;48.730;9.114;2022-11-15T15:46:04;3.30;;;2.60;;
9124;SDS011;4597;48.730;9.114;2022-11-15T15:48:32;3.53;;;2.30;;
9124;SDS011;4597;48.730;9.114;2022-11-15T15:50:58;2.50;;;2.30;;
9124;SDS011;4597;48.730;9.114;2022-11-15T15:53:24;2.60;;;2.40;;
9124;SDS011;4597;48.730;9.114;2022-11-15T15:55:49;3.70;;;2.13;;
9124;SDS011;4597;48.730;9.114;2022-11-15T15:58:15;2.87;;;2.50;;
9124;SDS011;4597;48.730;9.114;2022-11-15T16:00:40;2.43;;;2.23;;
9124;SDS011;4597;48.730;9.114;2022-11-15T16:03:06;4.60;;;2.40;;
9124;SDS011;4597;48.730;9.114;2022-11-15T16:05:31;2.57;;;2.30;;
9124;SDS011;4597;48.730;9.114;2022-11-15T16:07:57;2.90;;;2.60;;
9124;SDS011;4597;48.730;9.114;2022-11-15T16:12:53;2.70;;;2.50;;
9124;SDS011;4597;48.730;9.114;2022-11-15T16:15:20;4.40;;;2.63;;
9124;SDS011;4597;48.730;9.114;2022-11-15T16:17:48;2.97;;;2.57;;
9124;SDS011;4597;48.730;9.114;2022-11-15T16:20:21;3.67;;;2.63;;
9124;SDS011;4597;48.730;9.114;2022-11-15T16:22:47;6.17;;;3.10;;
9124;SDS011;4597;48.730;9.114;2022-11-15T16:25:13;3.90;;;2.87;;
9124;SDS011;4597;48.730;9.114;2022-11-15T16:27:38;3.27;;;2.93;;
9124;SDS011;4597;48.730;9.114;2022-11-15T16:30:12;4.33;;;3.03;;
9124;SDS011;4597;48.730;9.114;2022-11-15T16:32:41;3.40;;;3.10;;
9124;SDS011;4597;48.730;9.114;2022-11-15T16:35:09;3.20;;;2.90;;
9124;SDS011;4597;48.730;9.114;2022-11-15T16:37:36;2.67;;;2.47;;
9124;SDS011;4597;48.730;9.114;2022-11-15T16:40:04;2.80;;;2.60;;
9124;SDS011;4597;48.730;9.114;2022-11-15T16:42:33;3.37;;;2.37;;
9124;SDS011;4597;48.730;9.114;2022-11-15T16:44:59;2.63;;;2.43;;
9124;SDS011;4597;48.730;9.114;2022-11-15T16:47:24;2.63;;;2.43;;
9124;SDS011;4597;48.730;9.114;2022-11-15T16:49:50;4.70;;;2.90;;
9124;SDS011;4597;48.730;9.114;2022-11-15T16:52:15;2.50;;;2.40;;
9124;SDS011;4597;48.730;9.114;2022-11-15T16:54:41;3.97;;;2.60;;
9124;SDS011;4597;48.730;9.114;2022-11-15T16:57:07;3.27;;;2.47;;
9124;SDS011;4597;48.730;9.114;2022-11-15T16:59:34;3.07;;;2.87;;
9124;SDS011;4597;48.730;9.114;2022-11-15T17:02:00;3.47;;;3.17;;
9124;SDS011;4597;48.730;9.114;2022-11-15T17:04:25;24.73;;;18.17;;
9124;SDS011;4597;48.730;9.114;2022-11-15T17:06:56;11.73;;;9.57;;
9124;SDS011;4597;48.730;9.114;2022-11-15T17:09:22;10.33;;;9.03;;
9124;SDS011;4597;48.730;9.114;2022-11-15T17:11:48;6.03;;;3.93;;
9124;SDS011;4597;48.730;9.114;2022-11-15T17:14:14;5.40;;;2.87;;
9124;SDS011;4597;48.730;9.114;2022-11-15T17:16:41;3.53;;;3.17;;
9124;SDS011;4597;48.730;9.114;2022-11-15T17:19:15;4.40;;;2.90;;
9124;SDS011;4597;48.730;9.114;2022-11-15T17:21:44;3.20;;;2.90;;
9124;SDS011;4597;48.730;9.114;2022-11-15T17:24:11;3.23;;;2.90;;
9124;SDS011;4597;48.730;9.114;2022-11-15T17:26:37;4.40;;;4.00;;
9124;SDS011;4597;48.730;9.114;2022-11-15T17:29:03;6.53;;;5.63;;
9124;SDS011;4597;48.730;9.114;2022-11-15T17:31:32;17.50;;;11.33;;
9124;SDS011;4597;48.730;9.114;2022-11-15T17:33:59;10.87;;;8.17;;
9124;SDS011;4597;48.730;9.114;2022-11-15T17:36:26;16.30;;;10.87;;
9124;SDS011;4597;48.730;9.114;2022-11-15T17:38:52;28.73;;;19.03;;
9124;SDS011;4597;48.730;9.114;2022-11-15T17:41:18;29.17;;;18.73;;